Saturday, August 18, 2018, 3:48 PM EDT
Back to Local

KDAW, Skyhaven Airport

Location: Rochester, NH, United States Lat: 43.283
Local Time: 3:48 PM EDT (19:48 GMT) Lon: -70.917
Time Zone: US/Eastern Elev: 321 ft

Show me the last for .
Show Decoded

2018-08-18 14:51 METAR KDAW 181851Z AUTO VRB04KT 10SM SCT036 27/21 A2977 RMK AO2 SLP075 T02720206
                 =
2018-08-18 13:51 METAR KDAW 181751Z AUTO 30008KT 10SM BKN070 27/20 A2977 RMK AO2 SLP076 60001
                 T02670200 10278 20228 58002 =
2018-08-18 12:51 METAR KDAW 181651Z AUTO VRB03KT 10SM SCT060 BKN075 OVC100 24/21 A2978 RMK AO2
                 RAE47 SLP079 P0000 T02440211 =
2018-08-18 11:51 METAR KDAW 181551Z AUTO VRB03KT 10SM -RA FEW065 BKN090 OVC110 24/22 A2978 RMK
                 AO2 RAB21 SLP081 P0001 T02390217 =
2018-08-18 10:51 METAR KDAW 181451Z AUTO 31009KT 10SM FEW016 SCT038 27/23 A2978 RMK AO2 SLP079
                 T02670228 56004 =
2018-08-18 10:24 METAR KDAW 181424Z AUTO 30007KT 10SM FEW018 SCT029 OVC036 26/23 A2978 RMK AO2
                 T02560228 =
2018-08-18 09:51 METAR KDAW 181351Z AUTO 25003KT 10SM FEW009 BKN018 OVC028 25/23 A2978 RMK AO2
                 SLP081 T02500233 =
2018-08-18 09:28 METAR KDAW 181328Z AUTO VRB03KT 10SM SCT009 BKN019 BKN025 25/23 A2978 RMK AO2
                 T02500233 =
2018-08-18 09:21 METAR KDAW 181321Z AUTO VRB03KT 10SM BKN009 BKN013 BKN120 24/23 A2978 RMK AO2
                 T02440233 =
2018-08-18 09:00 METAR KDAW 181300Z AUTO 00000KT 10SM FEW008 24/23 A2978 RMK AO2 T02390228 =
2018-08-18 08:51 METAR KDAW 181251Z AUTO 00000KT 10SM CLR 24/23 A2978 RMK AO2 SLP079 T02390228 =
2018-08-18 07:51 METAR KDAW 181151Z AUTO 00000KT 10SM FEW120 23/22 A2979 RMK AO2 RAB1058E33
                 SLP083 P0000 60002 70026 T02280222 10228 20211 53001 =
2018-08-18 06:51 METAR KDAW 181051Z AUTO 00000KT 6SM BR SCT003 BKN110 22/22 A2978 RMK AO2 SLP081
                 T02170217 =
2018-08-18 06:47 METAR KDAW 181047Z AUTO 00000KT 6SM BR SCT003 SCT012 BKN110 22/22 A2978 RMK AO2
                 =
2018-08-18 06:29 METAR KDAW 181029Z AUTO 00000KT 8SM SCT003 BKN013 22/22 A2979 RMK AO2 T02170217
                 =
2018-08-18 06:04 METAR KDAW 181004Z AUTO 00000KT 9SM SCT003 22/22 A2978 RMK AO2 T02170217 =
2018-08-18 05:51 METAR KDAW 180951Z AUTO 00000KT 8SM BKN004 BKN007 22/22 A2979 RMK AO2 RAE05
                 SLP082 P0000 T02170217 =
2018-08-18 05:07 METAR KDAW 180907Z AUTO 18004KT 6SM BR BKN004 BKN008 BKN110 22/22 A2978 RMK AO2
                 RAE05 CIG 002V006 P0000 T02170217 =
2018-08-18 04:51 METAR KDAW 180851Z AUTO VRB03KT 5SM -RA BR FEW003 BKN006 BKN012 22/22 A2979 RMK
                 AO2 RAE0756B26 SLP083 P0001 60002 T02220222 56014 =
2018-08-18 04:14 METAR KDAW 180814Z AUTO 18003KT 4SM BR OVC006 22/22 A2979 RMK AO2 RAE0756 CIG
                 002V010 P0000 T02220222 =
2018-08-18 04:01 METAR KDAW 180801Z AUTO VRB03KT 4SM BR BKN004 OVC009 22/22 A2980 RMK AO2 RAE0756
                 CIG 002V007 P0000 T02220222 =
2018-08-18 03:51 METAR KDAW 180751Z AUTO VRB03KT 4SM -RA BR BKN006 OVC011 22/22 A2980 RMK AO2
                 RAE21B46 CIG 002V008 SLP088 P0000 T02220222 =
2018-08-18 03:14 METAR KDAW 180714Z AUTO 00000KT 4SM -RA BR BKN005 BKN110 22/22 A2980 RMK AO2 CIG
                 003V009 P0000 T02170217 =
2018-08-18 03:02 METAR KDAW 180702Z AUTO 00000KT 5SM -RA BR SCT007 BKN095 BKN120 22/22 A2980 RMK
                 AO2 P0000 T02170217 =
2018-08-18 02:51 METAR KDAW 180651Z AUTO 00000KT 3SM -RA BR FEW075 BKN095 BKN120 22/22 A2980 RMK
                 AO2 RAB16 SLP087 P0001 T02170217 =
2018-08-18 02:29 METAR KDAW 180629Z AUTO VRB03KT 4SM -RA BR SCT002 BKN043 OVC075 22/22 A2981 RMK
                 AO2 RAB16 P0000 T02170217 =
2018-08-18 02:14 METAR KDAW 180614Z AUTO 17004KT 3SM BR BKN002 OVC027 21/21 A2982 RMK AO2
                 T02110211 =
2018-08-18 02:03 METAR KDAW 180603Z AUTO VRB04KT 2 1/2SM BR OVC002 21/21 A2982 RMK AO2 T02110211
                 =
2018-08-18 01:51 METAR KDAW 180551Z AUTO VRB03KT 3SM BR OVC002 21/21 A2983 RMK AO2 SLP096 60018
                 T02110211 10211 20206 56020 =
2018-08-18 01:47 METAR KDAW 180547Z AUTO 17004KT 2 1/2SM BR OVC002 21/21 A2983 RMK AO2 =
2018-08-18 01:19 METAR KDAW 180519Z AUTO 00000KT 4SM BR BKN002 BKN070 21/21 A2986 RMK AO2
                 T02110211 =
2018-08-18 01:04 METAR KDAW 180504Z AUTO 00000KT 4SM BR FEW002 FEW008 SCT070 21/21 A2987 RMK AO2
                 T02110211 =
2018-08-18 00:51 METAR KDAW 180451Z AUTO 00000KT 4SM BR FEW021 SCT075 21/21 A2988 RMK AO2 RAE16
                 SLP114 P0001 T02110211 402670150 =
2018-08-18 00:05 METAR KDAW 180405Z AUTO 00000KT 3SM -RA BR FEW003 SCT095 SCT120 21/21 A2988 RMK
                 AO2 P0001 T02060206 =
2018-08-17 23:51 METAR KDAW 180351Z AUTO 00000KT 2 1/2SM -RA BR FEW047 SCT070 BKN120 21/21 A2989
                 RMK AO2 SLP117 P0009 T02060206 =
2018-08-17 23:22 METAR KDAW 180322Z AUTO 00000KT 3SM RA BR FEW080 SCT095 BKN110 21/21 A2990 RMK
                 AO2 P0007 T02060206 =
2018-08-17 23:13 METAR KDAW 180313Z AUTO 33003KT 2 1/2SM RA BR FEW075 BKN100 OVC110 21/21 A2991
                 RMK AO2 P0005 T02060206 =
2018-08-17 22:51 METAR KDAW 180251Z AUTO 32003KT 3SM RA BR FEW015 BKN110 21/21 A2992 RMK AO2 LTG
                 DSNT W SLP127 P0007 60008 T02060206 58007 =
2018-08-17 21:51 METAR KDAW 180151Z AUTO 00000KT 4SM RA BR BKN080 OVC110 21/21 A2993 RMK AO2 LTG
                 DSNT N AND NE RAB22 SLP132 P0001 T02110211 =
2018-08-17 20:51 METAR KDAW 180051Z AUTO 00000KT 8SM BKN100 OVC110 21/21 A2994 RMK AO2 LTG DSNT W
                 AND NW SLP133 T02060206 =
2018-08-17 19:51 METAR KDAW 172351Z AUTO 00000KT 8SM CLR 21/21 A2994 RMK AO2 SLP134 60006
                 T02110206 10267 20211 58013 =
2018-08-17 18:51 METAR KDAW 172251Z AUTO 00000KT 10SM BKN100 22/21 A2996 RMK AO2 SLP141 T02170211
                 =
2018-08-17 18:28 METAR KDAW 172228Z AUTO 18003KT 10SM SCT006 BKN085 22/21 A2997 RMK AO2 T02220211
                 =
2018-08-17 18:08 METAR KDAW 172208Z AUTO 13006KT 7SM BKN006 22/22 A2997 RMK AO2 CIG 004V008
                 T02220217 =
2018-08-17 17:51 METAR KDAW 172151Z AUTO 13006KT 7SM FEW005 22/22 A2997 RMK AO2 RAE33 SLP144
                 P0004 T02220217 =
2018-08-17 17:46 METAR KDAW 172146Z AUTO VRB05KT 7SM FEW005 FEW046 22/22 A2998 RMK AO2 RAE33
                 P0004 =
2018-08-17 16:51 METAR KDAW 172051Z AUTO 15004KT 4SM RA BR FEW085 BKN110 22/21 A3000 RMK AO2
                 RAB38 SLP156 P0002 60002 T02220206 56016 =
2018-08-17 15:51 METAR KDAW 171951Z AUTO 12005KT 10SM CLR 24/19 A3001 RMK AO2 SLP159 T02440189 =

Support USWX by starting your Amazon purchase here.